createdAt,value
2022-10-17T00:00:43.386Z,51.88
2022-10-17T00:01:43.400Z,51.96
2022-10-17T00:02:43.370Z,51.67
2022-10-17T00:03:43.345Z,49.08
2022-10-17T00:04:43.341Z,52.65
2022-10-17T00:05:43.346Z,52.01
2022-10-17T00:06:43.354Z,54.37
2022-10-17T00:07:43.359Z,50.68
2022-10-17T00:08:43.311Z,51.53
2022-10-17T00:09:43.309Z,50.46
2022-10-17T00:10:43.290Z,52.37
2022-10-17T00:11:43.288Z,50.64
2022-10-17T00:12:43.378Z,49.88
2022-10-17T00:13:43.294Z,48.18
2022-10-17T00:14:43.259Z,50.56
2022-10-17T00:15:43.258Z,49.27
2022-10-17T00:16:43.258Z,50.87
2022-10-17T00:17:43.238Z,49.00
2022-10-17T00:18:43.249Z,49.47
2022-10-17T00:19:43.234Z,52.40
2022-10-17T00:20:43.217Z,50.09
2022-10-17T00:21:43.221Z,54.31
2022-10-17T00:22:43.218Z,48.11
2022-10-17T00:23:43.222Z,51.21
2022-10-17T00:24:43.219Z,48.77
2022-10-17T00:25:43.229Z,51.96
2022-10-17T00:26:43.187Z,50.37
2022-10-17T00:27:43.186Z,54.85
2022-10-17T00:28:43.237Z,50.73
2022-10-17T00:29:43.194Z,53.94
2022-10-17T00:30:43.206Z,55.22
2022-10-17T00:31:43.238Z,51.92
2022-10-17T00:32:43.192Z,49.68
2022-10-17T00:33:43.185Z,52.43
2022-10-17T00:34:43.158Z,52.02
2022-10-17T00:35:43.131Z,55.44
2022-10-17T00:36:43.122Z,52.41
2022-10-17T00:37:43.129Z,54.71
2022-10-17T00:38:43.117Z,49.55
2022-10-17T00:39:44.117Z,54.33
2022-10-17T00:40:43.135Z,53.87
2022-10-17T00:41:43.103Z,56.86
2022-10-17T00:42:43.111Z,52.37
2022-10-17T00:43:43.107Z,54.67
2022-10-17T00:44:43.089Z,54.11
2022-10-17T00:45:43.085Z,50.72
2022-10-17T00:46:43.066Z,48.48
2022-10-17T00:47:44.062Z,50.64
2022-10-17T00:48:43.057Z,48.49
2022-10-17T00:49:43.062Z,50.93
2022-10-17T00:50:43.042Z,51.14
2022-10-17T00:51:43.048Z,48.75
2022-10-17T00:52:43.039Z,53.23
2022-10-17T00:53:43.030Z,52.41
2022-10-17T00:54:43.024Z,54.85
2022-10-17T00:55:43.009Z,52.52
2022-10-17T00:56:43.019Z,52.96
2022-10-17T00:57:43.003Z,51.75
2022-10-17T00:58:42.996Z,51.01
2022-10-17T00:59:42.986Z,49.27
2022-10-17T01:00:42.983Z,57.64
2022-10-17T01:01:43.104Z,49.84
2022-10-17T01:02:42.982Z,48.81
2022-10-17T01:03:42.958Z,51.58
2022-10-17T01:04:42.949Z,51.88
2022-10-17T01:05:42.961Z,51.78
2022-10-17T01:06:42.951Z,55.13
2022-10-17T01:07:42.938Z,53.17
2022-10-17T01:08:42.939Z,55.05
2022-10-17T01:09:42.947Z,50.86
2022-10-17T01:10:42.923Z,55.42
2022-10-17T01:11:42.934Z,53.00
2022-10-17T01:12:43.002Z,50.32
2022-10-17T01:13:42.907Z,51.67
2022-10-17T01:14:42.921Z,52.44
2022-10-17T01:15:42.885Z,51.27
2022-10-17T01:16:42.898Z,55.42
2022-10-17T01:17:42.879Z,54.36
2022-10-17T01:18:42.862Z,54.98
2022-10-17T01:19:42.865Z,53.60
2022-10-17T01:20:42.862Z,53.19
2022-10-17T01:21:42.850Z,55.38
2022-10-17T01:22:42.845Z,50.81
2022-10-17T01:23:42.833Z,52.98
2022-10-17T01:24:42.837Z,50.72
2022-10-17T01:25:42.825Z,52.86
2022-10-17T01:26:42.817Z,51.26
2022-10-17T01:27:42.818Z,52.13
2022-10-17T01:29:42.794Z,50.49
2022-10-17T01:30:42.790Z,49.78
2022-10-17T01:31:42.788Z,53.35
2022-10-17T01:32:42.797Z,52.83
2022-10-17T01:33:42.774Z,52.66
2022-10-17T01:34:42.770Z,51.56
2022-10-17T01:35:42.763Z,49.17
2022-10-17T01:36:42.753Z,51.45
2022-10-17T01:37:42.807Z,52.50
2022-10-17T01:38:42.734Z,51.10
2022-10-17T01:39:45.363Z,55.27
2022-10-17T01:40:43.740Z,50.98
2022-10-17T01:41:42.725Z,53.67
2022-10-17T01:42:42.718Z,54.42
2022-10-17T01:43:42.717Z,53.50
2022-10-17T01:44:42.716Z,53.25
2022-10-17T01:45:42.713Z,51.91
2022-10-17T01:46:42.693Z,50.74
2022-10-17T01:47:42.679Z,55.05
2022-10-17T01:48:43.682Z,52.09
2022-10-17T01:49:42.715Z,51.64
2022-10-17T01:50:42.704Z,55.59
2022-10-17T01:51:42.696Z,52.55
2022-10-17T01:52:42.653Z,50.86
2022-10-17T01:53:42.657Z,56.85
2022-10-17T01:54:42.640Z,53.48
2022-10-17T01:55:42.657Z,50.02
2022-10-17T01:56:42.625Z,50.16
2022-10-17T01:57:42.624Z,53.37
2022-10-17T01:58:42.616Z,53.41
2022-10-17T01:59:42.611Z,53.28
2022-10-17T02:00:42.605Z,55.17
2022-10-17T02:01:42.645Z,54.42
2022-10-17T02:02:42.575Z,55.95
2022-10-17T02:03:42.585Z,55.46
2022-10-17T02:04:42.599Z,52.18
2022-10-17T02:05:42.682Z,53.25
2022-10-17T02:06:42.565Z,53.17
2022-10-17T02:07:42.572Z,53.08
2022-10-17T02:08:42.543Z,51.74
2022-10-17T02:09:42.540Z,51.27
2022-10-17T02:10:42.558Z,56.07
2022-10-17T02:11:42.521Z,56.04
2022-10-17T02:12:42.516Z,54.54
2022-10-17T02:13:42.517Z,57.18
2022-10-17T02:14:42.498Z,54.23
2022-10-17T02:15:42.516Z,54.21
2022-10-17T02:16:42.494Z,53.45
2022-10-17T02:17:42.490Z,52.96
2022-10-17T02:18:42.477Z,51.51
2022-10-17T02:19:42.473Z,54.75
2022-10-17T02:20:42.465Z,57.40
2022-10-17T02:21:42.481Z,54.55
2022-10-17T02:22:42.464Z,55.40
2022-10-17T02:23:42.449Z,57.26
2022-10-17T02:24:42.445Z,56.41
2022-10-17T02:25:42.442Z,57.16
2022-10-17T02:26:42.441Z,58.26
2022-10-17T02:27:42.440Z,58.44
2022-10-17T02:28:42.452Z,55.11
2022-10-17T02:29:42.417Z,54.04
2022-10-17T02:30:42.411Z,54.23
2022-10-17T02:31:42.421Z,59.34
2022-10-17T02:32:45.417Z,58.53
2022-10-17T02:33:43.384Z,59.09
2022-10-17T02:34:42.381Z,55.12
2022-10-17T02:35:42.375Z,56.02
2022-10-17T02:36:42.377Z,54.24
2022-10-17T02:37:42.365Z,56.20
2022-10-17T02:38:42.349Z,55.22
2022-10-17T02:39:42.349Z,52.71
2022-10-17T02:40:42.349Z,57.03
2022-10-17T02:41:42.358Z,58.05
2022-10-17T02:42:42.340Z,54.89
2022-10-17T02:43:42.329Z,56.49
2022-10-17T02:44:42.334Z,58.07
2022-10-17T02:45:42.325Z,58.29
2022-10-17T02:46:42.328Z,60.37
2022-10-17T02:47:42.289Z,56.54
2022-10-17T02:48:42.291Z,56.42
2022-10-17T02:49:42.301Z,54.19
2022-10-17T02:50:42.277Z,57.97
2022-10-17T02:51:42.304Z,58.40
2022-10-17T02:52:42.279Z,57.42
2022-10-17T02:53:42.264Z,56.48
2022-10-17T02:54:42.265Z,56.96
2022-10-17T02:55:42.260Z,57.45
2022-10-17T02:56:42.264Z,59.01
2022-10-17T02:57:42.266Z,58.17
2022-10-17T02:58:42.244Z,54.50
2022-10-17T02:59:42.221Z,55.73
2022-10-17T03:00:42.224Z,56.95
2022-10-17T03:01:42.345Z,55.03
2022-10-17T03:02:42.237Z,59.14
2022-10-17T03:03:42.210Z,56.45
2022-10-17T03:04:42.205Z,56.17
2022-10-17T03:05:42.204Z,58.99
2022-10-17T03:06:42.193Z,58.33
2022-10-17T03:07:42.188Z,56.87
2022-10-17T03:08:42.198Z,59.32
2022-10-17T03:09:42.180Z,58.84
2022-10-17T03:10:42.180Z,59.34
2022-10-17T03:11:42.155Z,59.92
2022-10-17T03:12:42.177Z,58.97
2022-10-17T03:13:42.148Z,59.25
2022-10-17T03:14:42.176Z,58.37
2022-10-17T03:15:42.133Z,57.92
2022-10-17T03:16:42.124Z,57.77
2022-10-17T03:17:42.167Z,58.91
2022-10-17T03:18:44.377Z,57.84
2022-10-17T03:19:42.113Z,59.43
2022-10-17T03:20:42.104Z,59.64
2022-10-17T03:21:42.096Z,59.81
2022-10-17T03:22:42.092Z,59.38
2022-10-17T03:23:42.080Z,59.01
2022-10-17T03:24:42.108Z,59.47
2022-10-17T03:25:42.065Z,59.85
2022-10-17T03:26:42.160Z,59.98
2022-10-17T03:27:42.063Z,57.90
2022-10-17T03:28:42.101Z,58.13
2022-10-17T03:29:42.054Z,58.14
2022-10-17T03:30:42.036Z,59.49
2022-10-17T03:31:42.028Z,59.36
2022-10-17T03:32:42.029Z,61.95
2022-10-17T03:33:42.022Z,61.80
2022-10-17T03:34:42.008Z,60.21
2022-10-17T03:35:42.039Z,59.29
2022-10-17T03:36:42.016Z,59.91
2022-10-17T03:37:41.995Z,59.10
2022-10-17T03:38:41.976Z,59.41
2022-10-17T03:39:41.984Z,61.95
2022-10-17T03:40:41.976Z,62.15
2022-10-17T03:41:41.982Z,61.54
2022-10-17T03:42:41.960Z,60.91
2022-10-17T03:43:41.952Z,60.90
2022-10-17T03:44:41.945Z,60.96
2022-10-17T03:45:41.947Z,62.81
2022-10-17T03:46:41.972Z,61.63
2022-10-17T03:47:41.932Z,60.20
2022-10-17T03:48:41.928Z,61.34
2022-10-17T03:49:41.932Z,61.93
2022-10-17T03:50:41.922Z,62.37
2022-10-17T03:51:41.925Z,62.06
2022-10-17T03:52:41.907Z,62.02
2022-10-17T03:53:41.892Z,63.84
2022-10-17T03:54:41.904Z,63.27
2022-10-17T03:55:41.876Z,64.04
2022-10-17T03:56:41.879Z,63.68
2022-10-17T03:57:43.455Z,61.50
2022-10-17T03:58:41.873Z,61.58
2022-10-17T03:59:41.869Z,62.04
2022-10-17T04:00:41.856Z,62.63
2022-10-17T04:01:41.942Z,64.01
2022-10-17T04:02:41.840Z,62.25
2022-10-17T04:03:41.823Z,62.72
2022-10-17T04:04:41.836Z,61.68
2022-10-17T04:05:41.812Z,61.68
2022-10-17T04:06:41.816Z,61.37
2022-10-17T04:07:41.806Z,60.43
2022-10-17T04:08:41.800Z,60.23
2022-10-17T04:09:41.805Z,59.69
2022-10-17T04:10:41.786Z,61.12
2022-10-17T04:11:41.783Z,59.71
2022-10-17T04:12:41.774Z,61.76
2022-10-17T04:13:41.768Z,62.47
2022-10-17T04:14:41.778Z,63.00
2022-10-17T04:15:41.756Z,62.02
2022-10-17T04:16:41.756Z,59.99
2022-10-17T04:17:41.735Z,62.47
2022-10-17T04:18:41.739Z,62.24
2022-10-17T04:19:41.733Z,63.29
2022-10-17T04:20:41.729Z,64.48
2022-10-17T04:21:41.743Z,64.18
2022-10-17T04:22:41.712Z,63.64
2022-10-17T04:23:41.701Z,62.62
2022-10-17T04:24:41.696Z,62.58
2022-10-17T04:25:41.684Z,62.19
2022-10-17T04:26:41.772Z,63.59
2022-10-17T04:27:41.675Z,63.84
2022-10-17T04:28:41.678Z,62.90
2022-10-17T04:29:41.666Z,62.23
2022-10-17T04:30:45.076Z,62.60
2022-10-17T04:31:41.651Z,62.14
2022-10-17T04:32:41.648Z,62.09
2022-10-17T04:33:41.637Z,62.12
2022-10-17T04:34:41.631Z,63.14
2022-10-17T04:35:41.620Z,63.50
2022-10-17T04:36:41.615Z,63.35
2022-10-17T04:37:41.616Z,63.92
2022-10-17T04:38:42.603Z,63.59
2022-10-17T04:39:41.600Z,62.57
2022-10-17T04:40:41.608Z,62.10
2022-10-17T04:41:41.611Z,62.19
2022-10-17T04:42:41.575Z,64.03
2022-10-17T04:43:43.432Z,64.21
2022-10-17T04:44:41.564Z,63.82
2022-10-17T04:45:41.565Z,64.06
2022-10-17T04:46:41.559Z,64.32
2022-10-17T04:47:41.547Z,64.17
2022-10-17T04:48:41.539Z,63.37
2022-10-17T04:50:42.519Z,64.55
2022-10-17T04:51:41.519Z,63.19
2022-10-17T04:52:41.532Z,64.07
2022-10-17T04:53:41.507Z,64.26
2022-10-17T04:54:41.500Z,64.23
2022-10-17T04:55:41.500Z,63.73
2022-10-17T04:56:41.492Z,62.69
2022-10-17T04:57:41.497Z,63.05
2022-10-17T04:58:41.479Z,62.46
2022-10-17T04:59:41.480Z,62.56
2022-10-17T05:00:41.495Z,63.74
2022-10-17T05:01:41.470Z,63.49
2022-10-17T05:02:41.468Z,62.62
2022-10-17T05:03:41.466Z,63.87
2022-10-17T05:04:41.439Z,62.68
2022-10-17T05:05:41.451Z,63.69
2022-10-17T05:06:41.431Z,62.88
2022-10-17T05:07:41.428Z,64.97
2022-10-17T05:08:41.424Z,64.82
2022-10-17T05:09:41.416Z,65.70
2022-10-17T05:10:41.407Z,64.61
2022-10-17T05:11:41.397Z,62.54
2022-10-17T05:12:41.397Z,64.07
2022-10-17T05:13:41.404Z,63.43
2022-10-17T05:14:41.375Z,63.40
2022-10-17T05:15:41.371Z,64.03
2022-10-17T05:16:41.368Z,63.00
2022-10-17T05:17:41.367Z,63.03
2022-10-17T05:18:41.355Z,64.22
2022-10-17T05:19:41.355Z,64.37
2022-10-17T05:20:41.339Z,66.13
2022-10-17T05:21:41.331Z,64.10
2022-10-17T05:22:42.203Z,63.38
2022-10-17T05:23:41.327Z,64.08
2022-10-17T05:24:41.364Z,65.42
2022-10-17T05:25:41.304Z,65.54
2022-10-17T05:26:41.298Z,65.48
2022-10-17T05:27:41.302Z,66.78
2022-10-17T05:28:41.334Z,64.66
2022-10-17T05:29:41.305Z,63.70
2022-10-17T05:30:41.264Z,63.93
2022-10-17T05:31:41.272Z,63.73
2022-10-17T05:32:41.268Z,64.39
2022-10-17T05:33:41.253Z,64.75
2022-10-17T05:34:41.271Z,64.33
2022-10-17T05:35:41.260Z,64.21
2022-10-17T05:36:41.234Z,64.93
2022-10-17T05:37:41.240Z,66.43
2022-10-17T05:38:41.224Z,65.17
2022-10-17T05:39:41.218Z,64.94
2022-10-17T05:40:41.217Z,65.95
2022-10-17T05:41:41.202Z,65.13
2022-10-17T05:42:41.203Z,66.39
2022-10-17T05:43:41.202Z,64.08
2022-10-17T05:44:41.180Z,64.83
2022-10-17T05:45:41.190Z,63.52
2022-10-17T05:46:41.169Z,63.85
2022-10-17T05:47:41.163Z,64.16
2022-10-17T05:48:41.176Z,63.52
2022-10-17T05:49:47.343Z,64.72
2022-10-17T05:50:42.144Z,65.89
2022-10-17T05:51:41.140Z,65.34
2022-10-17T05:52:42.913Z,64.83
2022-10-17T05:53:41.131Z,65.09
2022-10-17T05:54:41.126Z,63.32
2022-10-17T05:55:41.122Z,64.82
2022-10-17T05:56:41.103Z,64.19
2022-10-17T05:57:41.099Z,64.13
2022-10-17T05:59:00.789Z,63.37
2022-10-17T05:59:43.103Z,62.25
2022-10-17T06:00:41.159Z,62.72
2022-10-17T06:01:41.093Z,63.56
2022-10-17T06:02:41.067Z,62.96
2022-10-17T06:03:41.060Z,63.08
2022-10-17T06:04:41.063Z,63.90
2022-10-17T06:05:41.072Z,62.66
2022-10-17T06:06:41.044Z,63.35
2022-10-17T06:07:41.104Z,63.45
2022-10-17T06:08:41.033Z,62.58
2022-10-17T06:09:41.053Z,63.74
2022-10-17T06:10:41.033Z,63.75
2022-10-17T06:11:41.014Z,63.37
2022-10-17T06:12:41.000Z,63.80
2022-10-17T06:13:40.995Z,61.82
2022-10-17T06:14:40.987Z,61.87
2022-10-17T06:15:41.004Z,63.43
2022-10-17T06:16:40.976Z,63.25
2022-10-17T06:17:40.983Z,63.64
2022-10-17T06:18:41.030Z,64.10
2022-10-17T06:19:41.007Z,64.23
2022-10-17T06:20:45.255Z,63.85
2022-10-17T06:21:42.942Z,64.34
2022-10-17T06:22:40.935Z,63.60
2022-10-17T06:23:40.932Z,64.93
2022-10-17T06:24:40.927Z,65.02
2022-10-17T06:25:40.956Z,63.35
2022-10-17T06:26:40.915Z,64.50
2022-10-17T06:27:40.946Z,63.80
2022-10-17T06:28:40.935Z,64.21
2022-10-17T06:29:40.901Z,65.34
2022-10-17T06:30:40.907Z,63.11
2022-10-17T06:31:40.883Z,62.78
2022-10-17T06:32:40.874Z,62.53
2022-10-17T06:33:40.866Z,64.02
2022-10-17T06:34:40.871Z,62.41
2022-10-17T06:35:40.853Z,63.10
2022-10-17T06:36:40.877Z,63.55
2022-10-17T06:37:41.039Z,63.77
2022-10-17T06:38:40.834Z,63.84
2022-10-17T06:39:40.828Z,62.77
2022-10-17T06:40:40.829Z,63.09
2022-10-17T06:41:40.843Z,63.59
2022-10-17T06:42:40.819Z,63.15
2022-10-17T06:43:40.803Z,63.03
2022-10-17T06:44:40.826Z,62.30
2022-10-17T06:45:40.795Z,64.11
2022-10-17T06:46:40.791Z,64.04
2022-10-17T06:47:40.803Z,64.25
2022-10-17T06:48:40.768Z,64.80
2022-10-17T06:49:40.762Z,64.15
2022-10-17T06:50:40.760Z,63.16
2022-10-17T06:51:40.749Z,63.20
2022-10-17T06:52:40.765Z,63.26
2022-10-17T06:53:40.754Z,63.66
2022-10-17T06:54:40.736Z,61.96
2022-10-17T06:55:40.729Z,62.10
2022-10-17T06:56:40.718Z,62.91
2022-10-17T06:57:40.717Z,64.36
2022-10-17T06:58:40.728Z,63.14
2022-10-17T06:59:40.715Z,62.45
2022-10-17T07:00:40.783Z,61.05
2022-10-17T07:01:43.216Z,63.39
2022-10-17T07:02:41.689Z,61.32
2022-10-17T07:03:40.693Z,61.92
2022-10-17T07:04:40.691Z,62.24
2022-10-17T07:05:40.661Z,62.56
2022-10-17T07:06:40.669Z,63.07
2022-10-17T07:07:43.146Z,63.33
2022-10-17T07:08:40.649Z,63.04
2022-10-17T07:09:40.654Z,62.45
2022-10-17T07:10:40.632Z,62.01
2022-10-17T07:11:40.637Z,61.38
2022-10-17T07:12:40.620Z,60.50
2022-10-17T07:13:40.625Z,61.35
2022-10-17T07:14:40.626Z,59.89
2022-10-17T07:15:40.605Z,61.11
2022-10-17T07:16:40.582Z,61.08
2022-10-17T07:17:40.597Z,60.92
2022-10-17T07:18:40.582Z,60.07
2022-10-17T07:19:40.642Z,61.58
2022-10-17T07:20:40.561Z,60.73
2022-10-17T07:21:40.556Z,62.40
2022-10-17T07:22:40.545Z,59.82
2022-10-17T07:23:40.534Z,60.09
2022-10-17T07:24:40.580Z,59.54
2022-10-17T07:25:40.540Z,59.48
2022-10-17T07:26:40.554Z,59.72
2022-10-17T07:27:40.513Z,57.96
2022-10-17T07:28:40.519Z,59.31
2022-10-17T07:29:40.513Z,57.58
2022-10-17T07:30:40.516Z,58.15
2022-10-17T07:31:40.484Z,59.28
2022-10-17T07:32:40.481Z,57.93
2022-10-17T07:33:40.529Z,57.64
2022-10-17T07:34:40.461Z,58.67
2022-10-17T07:35:40.463Z,58.89
2022-10-17T07:36:40.476Z,58.05
2022-10-17T07:37:40.475Z,59.06
2022-10-17T07:38:40.445Z,59.16
2022-10-17T07:39:40.445Z,59.57
2022-10-17T07:40:40.428Z,60.00
2022-10-17T07:41:40.461Z,60.63
2022-10-17T07:43:40.396Z,60.43
2022-10-17T07:44:40.393Z,61.00
2022-10-17T07:45:40.417Z,59.63
2022-10-17T07:46:40.385Z,60.26
2022-10-17T07:47:40.400Z,60.09
2022-10-17T07:48:40.376Z,59.68
2022-10-17T07:49:40.364Z,59.52
2022-10-17T07:50:40.353Z,59.70
2022-10-17T07:51:40.403Z,58.19
2022-10-17T07:52:40.369Z,58.42
2022-10-17T07:53:42.690Z,60.02
2022-10-17T07:54:40.334Z,58.43
2022-10-17T07:55:40.337Z,58.42
2022-10-17T07:56:40.328Z,58.05
2022-10-17T07:57:40.316Z,58.97
2022-10-17T07:58:40.329Z,58.54
2022-10-17T07:59:40.316Z,58.04
2022-10-17T08:00:40.422Z,57.46
2022-10-17T08:01:40.284Z,57.82
2022-10-17T08:02:41.283Z,58.31
2022-10-17T08:03:40.280Z,58.80
2022-10-17T08:04:40.299Z,57.84
2022-10-17T08:05:40.269Z,58.04
2022-10-17T08:06:40.260Z,58.67
2022-10-17T08:07:40.290Z,58.82
2022-10-17T08:08:40.239Z,58.29
2022-10-17T08:09:40.232Z,57.85
2022-10-17T08:10:40.281Z,57.95
2022-10-17T08:11:40.220Z,58.04
2022-10-17T08:12:40.225Z,56.71
2022-10-17T08:13:40.221Z,57.87
2022-10-17T08:14:40.219Z,57.47
2022-10-17T08:15:40.217Z,57.33
2022-10-17T08:16:40.191Z,57.71
2022-10-17T08:17:40.184Z,56.95
2022-10-17T08:18:40.196Z,57.29
2022-10-17T08:19:40.184Z,56.97
2022-10-17T08:20:40.172Z,56.75
2022-10-17T08:21:40.172Z,56.49
2022-10-17T08:22:40.161Z,57.00
2022-10-17T08:23:40.139Z,56.59
2022-10-17T08:24:40.145Z,57.53
2022-10-17T08:25:40.140Z,57.28
2022-10-17T08:26:43.385Z,58.04
2022-10-17T08:27:40.124Z,57.68
2022-10-17T08:28:40.235Z,57.43
2022-10-17T08:29:40.191Z,56.86
2022-10-17T08:30:40.117Z,57.21
2022-10-17T08:31:40.118Z,58.12
2022-10-17T08:32:40.091Z,57.37
2022-10-17T08:33:40.092Z,58.52
2022-10-17T08:34:40.083Z,59.12
2022-10-17T08:35:40.066Z,57.41
2022-10-17T08:36:40.087Z,59.74
2022-10-17T08:37:40.063Z,56.56
2022-10-17T08:38:43.150Z,58.41
2022-10-17T08:39:41.064Z,58.39
2022-10-17T08:40:40.104Z,57.64
2022-10-17T08:41:40.044Z,58.57
2022-10-17T08:42:40.027Z,56.75
2022-10-17T08:43:40.019Z,56.97
2022-10-17T08:44:40.036Z,56.19
2022-10-17T08:45:40.019Z,56.32
2022-10-17T08:46:40.008Z,55.57
2022-10-17T08:47:39.992Z,57.68
2022-10-17T08:48:44.089Z,56.01
2022-10-17T08:49:42.003Z,56.43
2022-10-17T08:50:39.987Z,58.31
2022-10-17T08:51:39.972Z,55.68
2022-10-17T08:52:39.977Z,58.14
2022-10-17T08:53:39.963Z,57.33
2022-10-17T08:54:39.975Z,54.96
2022-10-17T08:55:42.859Z,55.06
2022-10-17T08:56:48.535Z,57.76
2022-10-17T08:57:41.946Z,56.99
2022-10-17T08:58:39.934Z,55.54
2022-10-17T08:59:39.928Z,54.92
2022-10-17T09:00:39.916Z,55.07
2022-10-17T09:01:39.948Z,54.58
2022-10-17T09:02:39.933Z,55.36
2022-10-17T09:03:39.897Z,55.58
2022-10-17T09:04:39.888Z,55.47
2022-10-17T09:05:39.899Z,53.88
2022-10-17T09:06:39.877Z,54.92
2022-10-17T09:07:39.868Z,54.00
2022-10-17T09:08:39.864Z,54.43
2022-10-17T09:09:39.860Z,53.46
2022-10-17T09:10:39.875Z,54.60
2022-10-17T09:11:39.847Z,53.02
2022-10-17T09:12:39.837Z,53.83
2022-10-17T09:13:39.853Z,52.46
2022-10-17T09:14:40.801Z,54.58
2022-10-17T09:15:39.819Z,52.86
2022-10-17T09:16:39.811Z,53.68
2022-10-17T09:17:39.824Z,53.34
2022-10-17T09:18:39.824Z,52.75
2022-10-17T09:19:39.803Z,53.90
2022-10-17T09:20:39.804Z,53.57
2022-10-17T09:21:39.784Z,53.91
2022-10-17T09:22:39.783Z,54.30
2022-10-17T09:23:42.428Z,53.88
2022-10-17T09:24:39.769Z,54.79
2022-10-17T09:25:39.764Z,54.37
2022-10-17T09:26:39.767Z,53.93
2022-10-17T09:27:39.748Z,56.09
2022-10-17T09:28:39.782Z,54.77
2022-10-17T09:29:43.679Z,54.59
2022-10-17T09:30:45.216Z,55.97
2022-10-17T09:31:41.731Z,56.19
2022-10-17T09:32:39.731Z,54.99
2022-10-17T09:33:53.873Z,55.84
2022-10-17T09:34:41.731Z,53.33
2022-10-17T09:35:39.712Z,54.10
2022-10-17T09:36:39.695Z,54.84
2022-10-17T09:37:39.700Z,56.43
2022-10-17T09:38:39.697Z,57.10
2022-10-17T09:39:39.696Z,57.89
2022-10-17T09:40:39.691Z,57.07
2022-10-17T09:41:47.196Z,57.08
2022-10-17T09:42:41.659Z,54.54
2022-10-17T09:43:39.671Z,55.02
2022-10-17T09:44:39.663Z,55.21
2022-10-17T09:45:39.650Z,56.32
2022-10-17T09:46:39.647Z,55.76
2022-10-17T09:47:39.637Z,54.82
2022-10-17T09:48:39.631Z,56.16
2022-10-17T09:49:39.644Z,55.12
2022-10-17T09:50:39.635Z,55.71
2022-10-17T09:51:39.616Z,57.47
2022-10-17T09:52:39.616Z,57.00
2022-10-17T09:53:39.603Z,56.32
2022-10-17T09:54:39.592Z,55.85
2022-10-17T09:55:39.616Z,58.01
2022-10-17T09:56:39.587Z,58.71
2022-10-17T09:57:39.579Z,57.55
2022-10-17T09:58:39.571Z,58.48
2022-10-17T09:59:39.572Z,56.98
2022-10-17T10:00:39.611Z,56.89
2022-10-17T10:01:39.572Z,57.83
2022-10-17T10:02:39.551Z,57.74
2022-10-17T10:03:39.536Z,57.66
2022-10-17T10:04:53.083Z,56.03
2022-10-17T10:05:41.533Z,57.29
2022-10-17T10:06:39.528Z,58.31
2022-10-17T10:07:39.534Z,59.60
2022-10-17T10:08:39.532Z,57.06
2022-10-17T10:09:40.261Z,56.94
2022-10-17T10:10:39.509Z,58.32
2022-10-17T10:11:39.514Z,56.33
2022-10-17T10:12:40.298Z,58.11
2022-10-17T10:13:39.508Z,56.26
2022-10-17T10:14:39.487Z,56.48
2022-10-17T10:15:39.476Z,56.20
2022-10-17T10:16:39.475Z,57.57
2022-10-17T10:17:39.468Z,56.62
2022-10-17T10:18:39.483Z,55.56
2022-10-17T10:19:39.475Z,56.40
2022-10-17T10:20:39.529Z,58.05
2022-10-17T10:21:39.447Z,56.57
2022-10-17T10:22:39.444Z,58.65
2022-10-17T10:23:39.463Z,58.08
2022-10-17T10:24:39.427Z,56.38
2022-10-17T10:25:39.454Z,57.31
2022-10-17T10:26:39.421Z,58.49
2022-10-17T10:27:39.430Z,58.81
2022-10-17T10:28:39.442Z,58.19
2022-10-17T10:29:39.399Z,58.93
2022-10-17T10:30:40.105Z,57.99
2022-10-17T10:31:39.370Z,59.43
2022-10-17T10:32:39.381Z,58.87
2022-10-17T10:33:41.581Z,58.49
2022-10-17T10:34:40.370Z,58.13
2022-10-17T10:35:39.362Z,59.75
2022-10-17T10:36:39.362Z,60.43
2022-10-17T10:37:39.343Z,59.46
2022-10-17T10:38:39.346Z,59.47
2022-10-17T10:39:40.389Z,57.46
2022-10-17T10:40:39.332Z,59.22
2022-10-17T10:41:39.336Z,57.66
2022-10-17T10:42:39.327Z,58.58
2022-10-17T10:43:39.311Z,57.77
2022-10-17T10:44:39.335Z,58.08
2022-10-17T10:45:48.552Z,59.11
2022-10-17T10:46:41.289Z,58.68
2022-10-17T10:47:39.292Z,59.64
2022-10-17T10:48:39.280Z,57.38
2022-10-17T10:49:39.291Z,57.91
2022-10-17T10:50:44.400Z,58.83
2022-10-17T10:51:41.269Z,58.77
2022-10-17T10:52:39.257Z,57.58
2022-10-17T10:53:39.251Z,57.12
2022-10-17T10:55:40.258Z,58.44
2022-10-17T10:56:39.239Z,58.60
2022-10-17T10:57:39.236Z,57.02
2022-10-17T10:58:41.851Z,58.39
2022-10-17T10:59:39.219Z,58.57
2022-10-17T11:00:39.335Z,58.05
2022-10-17T11:01:39.209Z,57.69
2022-10-17T11:02:39.204Z,57.81
2022-10-17T11:04:39.219Z,57.21
2022-10-17T11:05:39.188Z,58.51
2022-10-17T11:06:39.164Z,57.54
2022-10-17T11:07:39.170Z,57.76
2022-10-17T11:08:39.158Z,57.33
2022-10-17T11:09:39.160Z,57.72
2022-10-17T11:10:39.158Z,56.84
2022-10-17T11:11:39.189Z,57.78
2022-10-17T11:12:39.203Z,57.96
2022-10-17T11:13:39.147Z,58.54
2022-10-17T11:14:39.123Z,56.99
2022-10-17T11:15:39.127Z,58.48
2022-10-17T11:16:39.139Z,58.64
2022-10-17T11:17:39.102Z,58.95
2022-10-17T11:18:39.102Z,58.88
2022-10-17T11:19:39.098Z,58.60
2022-10-17T11:20:39.094Z,58.92
2022-10-17T11:21:39.090Z,57.64
2022-10-17T11:22:39.555Z,59.10
2022-10-17T11:23:39.078Z,58.75
2022-10-17T11:24:39.082Z,60.36
2022-10-17T11:25:39.072Z,59.31
2022-10-17T11:26:39.062Z,59.24
2022-10-17T11:27:39.073Z,59.92
2022-10-17T11:28:39.099Z,59.02
2022-10-17T11:29:39.041Z,58.61
2022-10-17T11:30:39.099Z,57.40
2022-10-17T11:31:39.151Z,58.14
2022-10-17T11:32:39.048Z,57.73
2022-10-17T11:33:39.028Z,57.32
2022-10-17T11:34:39.023Z,57.25
2022-10-17T11:35:39.038Z,57.56
2022-10-17T11:36:39.006Z,58.47
2022-10-17T11:37:40.820Z,57.94
2022-10-17T11:38:38.988Z,58.93
2022-10-17T11:39:39.044Z,58.30
2022-10-17T11:40:38.986Z,58.46
2022-10-17T11:41:38.970Z,57.24
2022-10-17T11:42:39.005Z,58.13
2022-10-17T11:43:38.964Z,60.12
2022-10-17T11:44:38.945Z,59.22
2022-10-17T11:45:38.960Z,59.17
2022-10-17T11:46:38.950Z,59.86
2022-10-17T11:47:38.926Z,60.58
2022-10-17T11:48:38.938Z,60.83
2022-10-17T11:49:41.020Z,59.08
2022-10-17T11:52:55.970Z,57.04
2022-10-17T11:53:40.896Z,57.63
2022-10-17T11:54:38.899Z,57.10
2022-10-17T11:55:38.882Z,58.22
2022-10-17T11:56:42.670Z,58.87
2022-10-17T11:57:39.879Z,59.04
2022-10-17T11:58:38.878Z,59.55
2022-10-17T11:59:38.858Z,58.81
2022-10-17T12:00:40.841Z,58.24
2022-10-17T12:01:38.846Z,60.15
2022-10-17T12:02:39.220Z,60.12
2022-10-17T12:03:38.850Z,60.46
2022-10-17T12:04:39.338Z,60.50
2022-10-17T12:05:38.822Z,60.88
2022-10-17T12:06:38.818Z,59.23
2022-10-17T12:07:38.866Z,59.31
2022-10-17T12:08:38.845Z,59.80
2022-10-17T12:09:38.802Z,59.97
2022-10-17T12:10:38.870Z,58.58
2022-10-17T12:11:38.794Z,58.62
2022-10-17T12:12:38.781Z,58.87
2022-10-17T12:13:39.783Z,59.21
2022-10-17T12:14:38.782Z,58.08
2022-10-17T12:15:38.789Z,61.30
2022-10-17T12:16:38.761Z,59.67
2022-10-17T12:17:38.749Z,60.52
2022-10-17T12:18:38.746Z,61.52
2022-10-17T12:19:38.763Z,60.09
2022-10-17T12:20:38.748Z,59.24
2022-10-17T12:21:42.729Z,58.58
2022-10-17T12:22:39.712Z,59.14
2022-10-17T12:23:38.706Z,59.03
2022-10-17T12:24:38.768Z,59.85
2022-10-17T12:25:38.717Z,61.11
2022-10-17T12:26:38.689Z,59.66
2022-10-17T12:27:38.665Z,60.94
2022-10-17T12:28:39.919Z,60.30
2022-10-17T12:29:38.670Z,60.33
2022-10-17T12:30:38.661Z,59.14
2022-10-17T12:31:38.647Z,59.62
2022-10-17T12:33:00.308Z,59.89
2022-10-17T12:33:40.654Z,59.59
2022-10-17T12:34:38.658Z,58.70
2022-10-17T12:35:38.719Z,58.63
2022-10-17T12:36:38.619Z,59.75
2022-10-17T12:37:38.623Z,60.48
2022-10-17T12:38:38.618Z,58.41
2022-10-17T12:39:38.598Z,60.41
2022-10-17T12:40:38.591Z,59.80
2022-10-17T12:41:38.612Z,59.46
2022-10-17T12:42:38.604Z,59.33
2022-10-17T12:43:42.673Z,59.14
2022-10-17T12:44:40.563Z,60.39
2022-10-17T12:45:38.563Z,58.50
2022-10-17T12:46:38.563Z,59.18
2022-10-17T12:47:38.547Z,59.06
2022-10-17T12:48:38.551Z,59.78
2022-10-17T12:49:38.559Z,59.52
2022-10-17T12:50:38.527Z,60.37
2022-10-17T12:51:38.528Z,59.41
2022-10-17T12:52:38.515Z,60.07
2022-10-17T12:53:38.511Z,59.48
2022-10-17T12:54:47.216Z,59.26
2022-10-17T12:55:39.495Z,59.55
2022-10-17T12:56:38.487Z,57.44
2022-10-17T12:57:38.516Z,58.00
2022-10-17T12:58:39.158Z,57.19
2022-10-17T12:59:38.463Z,60.04